UAL403 KPWM-KPHL
Flight info
| Callsign | UAL403 |
|---|---|
| Flight time | 1h 25m |
| Altitude | 36000 |
| Route | NUBLE4 CCC MANTA Q439 BRIGS JIIMS4 |
| Aircraft | A20N/M-SDE2E3FGHIRWXY/LB1 |
Departure
| Time | 2026-05-06 21:09 |
|---|---|
| Airport | Portland International Jetport (KPWM) |
Arrival
| Time | 2026-05-06 22:34 |
|---|---|
| Airport | Philadelphia International Airport (KPHL) |
| Time | Latitude | Longitude | Altitude | Speed | Heading |
|---|---|---|---|---|---|
| 2026-05-06 20:49 | 43.64984 | -70.30774 | 60 ft | 0 kts | 359° |
| 2026-05-06 21:00 | 43.64982 | -70.30774 | 69 ft | 2 kts | 5° |
| 2026-05-06 21:00 | 43.64970 | -70.30782 | 51 ft | 2 kts | 69° |
| 2026-05-06 21:00 | 43.64968 | -70.30787 | 54 ft | 0 kts | 85° |
| 2026-05-06 21:01 | 43.64968 | -70.30782 | 51 ft | 2 kts | 85° |
| 2026-05-06 21:01 | 43.64970 | -70.30753 | 53 ft | 4 kts | 88° |
| 2026-05-06 21:01 | 43.64964 | -70.30726 | 56 ft | 2 kts | 122° |
| 2026-05-06 21:02 | 43.64956 | -70.30717 | 55 ft | 3 kts | 149° |
| 2026-05-06 21:02 | 43.64921 | -70.30710 | 56 ft | 7 kts | 175° |
| 2026-05-06 21:02 | 43.64839 | -70.30705 | 56 ft | 10 kts | 180° |
| 2026-05-06 21:02 | 43.64768 | -70.30705 | 59 ft | 10 kts | 179° |
| 2026-05-06 21:03 | 43.64693 | -70.30704 | 60 ft | 12 kts | 176° |
| 2026-05-06 21:03 | 43.64631 | -70.30699 | 60 ft | 13 kts | 179° |
| 2026-05-06 21:03 | 43.64617 | -70.30698 | 60 ft | 0 kts | 177° |
| 2026-05-06 21:04 | 43.64611 | -70.30698 | 60 ft | 3 kts | 177° |
| 2026-05-06 21:04 | 43.64576 | -70.30695 | 59 ft | 7 kts | 176° |
| 2026-05-06 21:05 | 43.64515 | -70.30690 | 54 ft | 8 kts | 177° |
| 2026-05-06 21:05 | 43.64467 | -70.30720 | 56 ft | 8 kts | 245° |
| 2026-05-06 21:05 | 43.64472 | -70.30901 | 63 ft | 28 kts | 276° |
| 2026-05-06 21:05 | 43.64492 | -70.31157 | 67 ft | 33 kts | 274° |
| 2026-05-06 21:06 | 43.64516 | -70.31581 | 75 ft | 44 kts | 273° |
| 2026-05-06 21:06 | 43.64547 | -70.31984 | 82 ft | 40 kts | 278° |
| 2026-05-06 21:06 | 43.64558 | -70.32231 | 89 ft | 18 kts | 275° |
| 2026-05-06 21:06 | 43.64576 | -70.32388 | 95 ft | 14 kts | 280° |
| 2026-05-06 21:07 | 43.64588 | -70.32505 | 96 ft | 11 kts | 278° |
| 2026-05-06 21:07 | 43.64606 | -70.32568 | 97 ft | 1 kts | 279° |
| 2026-05-06 21:07 | 43.64598 | -70.32570 | 95 ft | 3 kts | 169° |
| 2026-05-06 21:07 | 43.64587 | -70.32539 | 98 ft | 3 kts | 109° |
| 2026-05-06 21:08 | 43.64567 | -70.32409 | 93 ft | 51 kts | 98° |
| 2026-05-06 21:08 | 43.64519 | -70.31469 | 76 ft | 149 kts | 98° |
| 2026-05-06 21:08 | 43.64443 | -70.29755 | 400 ft | 203 kts | 86° |
| 2026-05-06 21:09 | 43.65075 | -70.27799 | 1118 ft | 241 kts | 62° |
| 2026-05-06 21:09 | 43.65849 | -70.25727 | 2044 ft | 235 kts | 71° |
| 2026-05-06 21:09 | 43.66485 | -70.23686 | 2673 ft | 236 kts | 73° |
| 2026-05-06 21:09 | 43.67101 | -70.21360 | 2961 ft | 275 kts | 77° |
| 2026-05-06 21:10 | 43.67216 | -70.18745 | 2995 ft | 272 kts | 108° |
| 2026-05-06 21:10 | 43.66712 | -70.16280 | 2981 ft | 259 kts | 116° |
| 2026-05-06 21:10 | 43.66147 | -70.14005 | 2975 ft | 242 kts | 117° |
| 2026-05-06 21:10 | 43.65598 | -70.11896 | 2968 ft | 223 kts | 124° |
| 2026-05-06 21:11 | 43.64665 | -70.10453 | 2972 ft | 188 kts | 167° |
| 2026-05-06 21:11 | 43.63454 | -70.10236 | 2992 ft | 173 kts | 190° |
| 2026-05-06 21:11 | 43.62262 | -70.10395 | 2981 ft | 172 kts | 193° |
| 2026-05-06 21:11 | 43.61070 | -70.10601 | 2985 ft | 173 kts | 194° |
| 2026-05-06 21:12 | 43.59881 | -70.10798 | 2986 ft | 171 kts | 194° |
| 2026-05-06 21:12 | 43.58696 | -70.10983 | 2988 ft | 171 kts | 194° |
| 2026-05-06 21:12 | 43.57551 | -70.11326 | 2986 ft | 165 kts | 210° |
| 2026-05-06 21:12 | 43.56655 | -70.12284 | 2986 ft | 163 kts | 225° |
| 2026-05-06 21:13 | 43.55890 | -70.13459 | 2990 ft | 166 kts | 227° |
| 2026-05-06 21:13 | 43.55144 | -70.14673 | 2983 ft | 166 kts | 228° |
| 2026-05-06 21:13 | 43.54399 | -70.15886 | 2981 ft | 166 kts | 228° |
| 2026-05-06 21:13 | 43.53650 | -70.17096 | 2985 ft | 166 kts | 228° |
| 2026-05-06 21:14 | 43.52901 | -70.18299 | 2981 ft | 165 kts | 228° |
| 2026-05-06 21:14 | 43.52150 | -70.19500 | 2985 ft | 166 kts | 227° |
| 2026-05-06 21:14 | 43.51392 | -70.20709 | 2982 ft | 167 kts | 227° |
| 2026-05-06 21:14 | 43.50632 | -70.21919 | 2979 ft | 167 kts | 227° |
| 2026-05-06 21:15 | 43.49873 | -70.23128 | 2973 ft | 167 kts | 228° |
| 2026-05-06 21:15 | 43.49208 | -70.24184 | 2983 ft | 167 kts | 228° |
| 2026-05-06 21:15 | 43.48447 | -70.25396 | 2979 ft | 167 kts | 228° |
| 2026-05-06 21:15 | 43.47687 | -70.26603 | 3065 ft | 167 kts | 228° |
| 2026-05-06 21:16 | 43.46922 | -70.27817 | 3736 ft | 174 kts | 228° |
| 2026-05-06 21:16 | 43.46138 | -70.29061 | 5107 ft | 168 kts | 229° |
| 2026-05-06 21:16 | 43.45387 | -70.30254 | 6558 ft | 162 kts | 229° |
| 2026-05-06 21:16 | 43.44644 | -70.31431 | 7758 ft | 165 kts | 230° |
| 2026-05-06 21:17 | 43.43875 | -70.32652 | 8873 ft | 172 kts | 230° |
| 2026-05-06 21:17 | 43.43084 | -70.33908 | 9955 ft | 176 kts | 230° |
| 2026-05-06 21:17 | 43.42269 | -70.35201 | 10885 ft | 183 kts | 231° |
| 2026-05-06 21:17 | 43.41381 | -70.36610 | 11444 ft | 207 kts | 231° |
| 2026-05-06 21:18 | 43.40394 | -70.38172 | 12187 ft | 222 kts | 231° |
| 2026-05-06 21:18 | 43.39359 | -70.39805 | 13116 ft | 230 kts | 231° |
| 2026-05-06 21:18 | 43.38294 | -70.41486 | 14053 ft | 237 kts | 232° |
| 2026-05-06 21:18 | 43.37202 | -70.43205 | 14989 ft | 240 kts | 231° |
| 2026-05-06 21:19 | 43.36098 | -70.44944 | 15977 ft | 243 kts | 231° |
| 2026-05-06 21:19 | 43.34983 | -70.46699 | 16970 ft | 246 kts | 231° |
| 2026-05-06 21:19 | 43.33851 | -70.48481 | 17957 ft | 249 kts | 231° |
| 2026-05-06 21:19 | 43.32706 | -70.50286 | 18812 ft | 252 kts | 231° |
| 2026-05-06 21:20 | 43.31553 | -70.52129 | 19664 ft | 255 kts | 231° |
| 2026-05-06 21:20 | 43.30402 | -70.54004 | 20531 ft | 258 kts | 231° |
| 2026-05-06 21:20 | 43.29250 | -70.55912 | 21410 ft | 261 kts | 231° |
| 2026-05-06 21:20 | 43.28048 | -70.57789 | 22275 ft | 264 kts | 226° |
| 2026-05-06 21:21 | 43.26711 | -70.59529 | 23126 ft | 266 kts | 224° |
| 2026-05-06 21:21 | 43.25327 | -70.61238 | 23846 ft | 269 kts | 223° |
| 2026-05-06 21:21 | 43.23917 | -70.62945 | 24504 ft | 272 kts | 223° |
| 2026-05-06 21:21 | 43.22485 | -70.64663 | 25146 ft | 275 kts | 223° |
| 2026-05-06 21:22 | 43.21034 | -70.66396 | 25765 ft | 278 kts | 224° |
| 2026-05-06 21:22 | 43.19566 | -70.68146 | 26375 ft | 281 kts | 224° |
| 2026-05-06 21:22 | 43.18099 | -70.69889 | 26993 ft | 284 kts | 224° |
| 2026-05-06 21:22 | 43.16530 | -70.71562 | 27599 ft | 289 kts | 218° |
| 2026-05-06 21:23 | 43.14788 | -70.72982 | 28173 ft | 294 kts | 214° |
| 2026-05-06 21:23 | 43.12977 | -70.74302 | 28724 ft | 297 kts | 213° |
| 2026-05-06 21:23 | 43.11132 | -70.75620 | 29280 ft | 300 kts | 213° |
| 2026-05-06 21:23 | 43.09270 | -70.76948 | 29817 ft | 303 kts | 213° |
| 2026-05-06 21:24 | 43.07390 | -70.78291 | 30273 ft | 306 kts | 214° |
| 2026-05-06 21:24 | 43.05498 | -70.79643 | 30771 ft | 307 kts | 214° |
| 2026-05-06 21:24 | 43.03618 | -70.80985 | 31343 ft | 305 kts | 214° |
| 2026-05-06 21:24 | 43.01743 | -70.82324 | 31888 ft | 303 kts | 215° |
| 2026-05-06 21:25 | 42.99879 | -70.83656 | 32416 ft | 302 kts | 216° |
| 2026-05-06 21:25 | 42.98022 | -70.84982 | 32886 ft | 301 kts | 216° |
| 2026-05-06 21:25 | 42.96172 | -70.86303 | 33380 ft | 299 kts | 217° |
| 2026-05-06 21:25 | 42.94329 | -70.87619 | 33854 ft | 298 kts | 217° |
| 2026-05-06 21:26 | 42.92492 | -70.88930 | 34287 ft | 297 kts | 218° |
| 2026-05-06 21:26 | 42.90665 | -70.90232 | 34672 ft | 297 kts | 218° |
| 2026-05-06 21:26 | 42.88832 | -70.91539 | 35040 ft | 297 kts | 218° |
| 2026-05-06 21:26 | 42.87000 | -70.92845 | 35352 ft | 297 kts | 218° |
| 2026-05-06 21:27 | 42.85166 | -70.94150 | 35671 ft | 297 kts | 218° |
| 2026-05-06 21:27 | 42.83297 | -70.95401 | 35942 ft | 303 kts | 214° |
| 2026-05-06 21:27 | 42.81318 | -70.96475 | 35999 ft | 309 kts | 212° |
| 2026-05-06 21:28 | 42.77152 | -70.98523 | 36008 ft | 328 kts | 211° |
| 2026-05-06 21:28 | 42.72744 | -71.00668 | 36010 ft | 348 kts | 211° |
| 2026-05-06 21:29 | 42.68046 | -71.02951 | 36007 ft | 367 kts | 210° |
| 2026-05-06 21:29 | 42.63106 | -71.05349 | 35970 ft | 386 kts | 210° |
| 2026-05-06 21:30 | 42.57955 | -71.07853 | 36008 ft | 396 kts | 210° |
| 2026-05-06 21:30 | 42.52771 | -71.10365 | 36007 ft | 395 kts | 210° |
| 2026-05-06 21:31 | 42.47616 | -71.12836 | 36011 ft | 395 kts | 210° |
| 2026-05-06 21:31 | 42.42499 | -71.15463 | 36002 ft | 388 kts | 216° |
| 2026-05-06 21:32 | 42.38045 | -71.19298 | 36008 ft | 376 kts | 225° |
| 2026-05-06 21:32 | 42.31647 | -71.25696 | 36000 ft | 393 kts | 225° |
| 2026-05-06 21:33 | 42.27199 | -71.30112 | 35961 ft | 397 kts | 225° |
| 2026-05-06 21:33 | 42.22747 | -71.34509 | 35999 ft | 396 kts | 225° |
| 2026-05-06 21:34 | 42.18291 | -71.38906 | 36018 ft | 396 kts | 225° |
| 2026-05-06 21:34 | 42.13857 | -71.43274 | 36025 ft | 396 kts | 225° |
| 2026-05-06 21:35 | 42.09402 | -71.47656 | 36018 ft | 397 kts | 225° |
| 2026-05-06 21:35 | 42.04943 | -71.52034 | 36028 ft | 397 kts | 225° |
| 2026-05-06 21:36 | 42.00476 | -71.56412 | 36053 ft | 397 kts | 225° |
| 2026-05-06 21:36 | 41.96058 | -71.60732 | 36034 ft | 396 kts | 225° |
| 2026-05-06 21:37 | 41.91614 | -71.65073 | 36024 ft | 396 kts | 225° |
| 2026-05-06 21:37 | 41.87185 | -71.69391 | 36032 ft | 396 kts | 225° |
| 2026-05-06 21:38 | 41.82722 | -71.73735 | 36025 ft | 396 kts | 225° |
| 2026-05-06 21:38 | 41.78256 | -71.78074 | 36037 ft | 396 kts | 225° |
| 2026-05-06 21:39 | 41.73787 | -71.82407 | 36026 ft | 397 kts | 225° |
| 2026-05-06 21:39 | 41.69303 | -71.86748 | 36024 ft | 397 kts | 225° |
| 2026-05-06 21:40 | 41.64817 | -71.91083 | 36051 ft | 398 kts | 225° |
| 2026-05-06 21:40 | 41.60338 | -71.95403 | 36026 ft | 396 kts | 225° |
| 2026-05-06 21:41 | 41.55906 | -71.99761 | 36017 ft | 392 kts | 229° |
| 2026-05-06 21:41 | 41.53894 | -72.02154 | 35642 ft | 384 kts | 232° |
| 2026-05-06 21:41 | 41.51960 | -72.04630 | 34760 ft | 388 kts | 232° |
| 2026-05-06 21:42 | 41.50038 | -72.07132 | 33804 ft | 394 kts | 232° |
| 2026-05-06 21:42 | 41.48060 | -72.09703 | 32768 ft | 399 kts | 232° |
| 2026-05-06 21:42 | 41.46056 | -72.12297 | 31751 ft | 404 kts | 231° |
| 2026-05-06 21:42 | 41.44028 | -72.14913 | 30729 ft | 408 kts | 231° |
| 2026-05-06 21:43 | 41.41974 | -72.17557 | 29734 ft | 411 kts | 230° |
| 2026-05-06 21:43 | 41.39924 | -72.20188 | 28924 ft | 407 kts | 230° |
| 2026-05-06 21:43 | 41.37895 | -72.22787 | 28147 ft | 403 kts | 230° |
| 2026-05-06 21:43 | 41.35886 | -72.25361 | 27360 ft | 399 kts | 230° |
| 2026-05-06 21:44 | 41.33892 | -72.27915 | 26678 ft | 395 kts | 230° |
| 2026-05-06 21:44 | 41.31929 | -72.30427 | 25968 ft | 391 kts | 230° |
| 2026-05-06 21:44 | 41.29976 | -72.32925 | 25210 ft | 389 kts | 230° |
| 2026-05-06 21:44 | 41.28028 | -72.35418 | 24459 ft | 387 kts | 230° |
| 2026-05-06 21:45 | 41.26090 | -72.37893 | 23742 ft | 386 kts | 229° |
| 2026-05-06 21:45 | 41.24159 | -72.40358 | 22933 ft | 384 kts | 230° |
| 2026-05-06 21:45 | 41.22247 | -72.42794 | 22305 ft | 377 kts | 229° |
| 2026-05-06 21:45 | 41.20367 | -72.45187 | 21647 ft | 372 kts | 229° |
| 2026-05-06 21:46 | 41.18510 | -72.47551 | 20959 ft | 368 kts | 228° |
| 2026-05-06 21:46 | 41.16678 | -72.49882 | 20367 ft | 364 kts | 228° |
| 2026-05-06 21:46 | 41.14869 | -72.52183 | 20087 ft | 363 kts | 228° |
| 2026-05-06 21:46 | 41.13043 | -72.54504 | 20025 ft | 363 kts | 227° |
| 2026-05-06 21:47 | 41.11222 | -72.56815 | 20032 ft | 363 kts | 227° |
| 2026-05-06 21:47 | 41.09399 | -72.59126 | 20031 ft | 362 kts | 227° |
| 2026-05-06 21:47 | 41.07569 | -72.61444 | 20028 ft | 362 kts | 227° |
| 2026-05-06 21:47 | 41.05754 | -72.63740 | 20034 ft | 361 kts | 227° |
| 2026-05-06 21:48 | 41.03929 | -72.66049 | 20035 ft | 361 kts | 227° |
| 2026-05-06 21:48 | 41.02411 | -72.67966 | 20037 ft | 361 kts | 227° |
| 2026-05-06 21:48 | 41.00596 | -72.70260 | 20037 ft | 361 kts | 227° |
| 2026-05-06 21:48 | 40.98779 | -72.72552 | 20040 ft | 361 kts | 227° |
| 2026-05-06 21:49 | 40.97544 | -72.74034 | 20038 ft | 362 kts | 225° |
| 2026-05-06 21:49 | 40.94820 | -72.76636 | 20037 ft | 368 kts | 216° |
| 2026-05-06 21:49 | 40.92516 | -72.78157 | 20026 ft | 373 kts | 208° |
| 2026-05-06 21:49 | 40.90026 | -72.79232 | 20029 ft | 380 kts | 201° |
| 2026-05-06 21:50 | 40.87391 | -72.79817 | 20020 ft | 389 kts | 193° |
| 2026-05-06 21:50 | 40.84671 | -72.80023 | 20031 ft | 393 kts | 189° |
| 2026-05-06 21:50 | 40.82815 | -72.80068 | 20032 ft | 395 kts | 188° |
| 2026-05-06 21:50 | 40.80066 | -72.80058 | 20030 ft | 396 kts | 187° |
| 2026-05-06 21:51 | 40.77299 | -72.80010 | 20033 ft | 397 kts | 187° |
| 2026-05-06 21:51 | 40.74537 | -72.79959 | 20036 ft | 397 kts | 187° |
| 2026-05-06 21:51 | 40.71812 | -72.79920 | 20038 ft | 397 kts | 187° |
| 2026-05-06 21:51 | 40.69052 | -72.79896 | 20038 ft | 396 kts | 187° |
| 2026-05-06 21:52 | 40.66253 | -72.79884 | 20042 ft | 398 kts | 188° |
| 2026-05-06 21:52 | 40.63522 | -72.79882 | 20038 ft | 399 kts | 188° |
| 2026-05-06 21:52 | 40.60743 | -72.79897 | 20037 ft | 398 kts | 189° |
| 2026-05-06 21:52 | 40.57997 | -72.80167 | 20043 ft | 393 kts | 195° |
| 2026-05-06 21:53 | 40.55328 | -72.80849 | 20048 ft | 386 kts | 202° |
| 2026-05-06 21:53 | 40.52809 | -72.81980 | 20038 ft | 380 kts | 210° |
| 2026-05-06 21:53 | 40.50482 | -72.83553 | 20042 ft | 373 kts | 217° |
| 2026-05-06 21:53 | 40.48392 | -72.85531 | 20024 ft | 368 kts | 225° |
| 2026-05-06 21:54 | 40.46530 | -72.87840 | 20032 ft | 366 kts | 230° |
| 2026-05-06 21:54 | 40.44769 | -72.90241 | 20038 ft | 366 kts | 231° |
| 2026-05-06 21:54 | 40.43014 | -72.92663 | 20039 ft | 366 kts | 231° |
| 2026-05-06 21:54 | 40.41256 | -72.95082 | 20046 ft | 366 kts | 231° |
| 2026-05-06 21:55 | 40.39490 | -72.97500 | 20045 ft | 366 kts | 231° |
| 2026-05-06 21:55 | 40.37751 | -72.99874 | 20039 ft | 366 kts | 231° |
| 2026-05-06 21:55 | 40.35988 | -73.02277 | 20039 ft | 366 kts | 231° |
| 2026-05-06 21:55 | 40.34219 | -73.04682 | 20046 ft | 365 kts | 231° |
| 2026-05-06 21:56 | 40.32455 | -73.07080 | 20050 ft | 365 kts | 231° |
| 2026-05-06 21:56 | 40.30689 | -73.09475 | 20010 ft | 365 kts | 231° |
| 2026-05-06 21:56 | 40.28918 | -73.11878 | 20036 ft | 366 kts | 231° |
| 2026-05-06 21:56 | 40.27145 | -73.14279 | 20045 ft | 367 kts | 231° |
| 2026-05-06 21:57 | 40.25370 | -73.16682 | 20045 ft | 367 kts | 231° |
| 2026-05-06 21:57 | 40.23594 | -73.19084 | 20045 ft | 367 kts | 231° |
| 2026-05-06 21:57 | 40.21817 | -73.21484 | 20044 ft | 367 kts | 231° |
| 2026-05-06 21:57 | 40.20040 | -73.23884 | 20044 ft | 367 kts | 231° |
| 2026-05-06 21:58 | 40.18262 | -73.26283 | 20044 ft | 367 kts | 231° |
| 2026-05-06 21:58 | 40.16483 | -73.28681 | 20044 ft | 367 kts | 231° |
| 2026-05-06 21:58 | 40.14704 | -73.31077 | 20055 ft | 367 kts | 231° |
| 2026-05-06 21:58 | 40.12930 | -73.33464 | 20020 ft | 365 kts | 231° |
| 2026-05-06 21:59 | 40.11182 | -73.35815 | 20045 ft | 366 kts | 231° |
| 2026-05-06 21:59 | 40.09406 | -73.38202 | 20045 ft | 366 kts | 231° |
| 2026-05-06 21:59 | 40.07628 | -73.40589 | 20042 ft | 367 kts | 231° |
| 2026-05-06 21:59 | 40.05849 | -73.42977 | 20046 ft | 367 kts | 231° |
| 2026-05-06 22:00 | 40.04079 | -73.45347 | 19689 ft | 361 kts | 231° |
| 2026-05-06 22:00 | 40.02330 | -73.47688 | 18930 ft | 360 kts | 230° |
| 2026-05-06 22:00 | 40.00591 | -73.50016 | 18372 ft | 355 kts | 229° |
| 2026-05-06 22:00 | 39.98875 | -73.52309 | 17737 ft | 351 kts | 229° |
| 2026-05-06 22:01 | 39.97181 | -73.54573 | 17122 ft | 346 kts | 229° |
| 2026-05-06 22:01 | 39.95512 | -73.56800 | 16525 ft | 341 kts | 229° |
| 2026-05-06 22:01 | 39.93864 | -73.58999 | 15892 ft | 336 kts | 229° |
| 2026-05-06 22:01 | 39.92243 | -73.61160 | 15290 ft | 332 kts | 229° |
| 2026-05-06 22:02 | 39.90639 | -73.63298 | 14710 ft | 328 kts | 229° |
| 2026-05-06 22:02 | 39.89055 | -73.65406 | 14150 ft | 323 kts | 229° |
| 2026-05-06 22:02 | 39.87490 | -73.67490 | 13540 ft | 320 kts | 229° |
| 2026-05-06 22:02 | 39.85939 | -73.69553 | 12862 ft | 317 kts | 229° |
| 2026-05-06 22:03 | 39.84397 | -73.71601 | 12195 ft | 315 kts | 229° |
| 2026-05-06 22:03 | 39.82875 | -73.73623 | 11543 ft | 312 kts | 229° |
| 2026-05-06 22:03 | 39.81360 | -73.75632 | 10904 ft | 310 kts | 229° |
| 2026-05-06 22:03 | 39.79855 | -73.77628 | 10289 ft | 307 kts | 229° |
| 2026-05-06 22:04 | 39.78361 | -73.79591 | 9668 ft | 304 kts | 229° |
| 2026-05-06 22:04 | 39.76886 | -73.81543 | 8956 ft | 302 kts | 229° |
| 2026-05-06 22:04 | 39.75417 | -73.83491 | 8177 ft | 302 kts | 229° |
| 2026-05-06 22:04 | 39.73963 | -73.85418 | 7460 ft | 301 kts | 228° |
| 2026-05-06 22:05 | 39.72499 | -73.87356 | 6790 ft | 299 kts | 228° |
| 2026-05-06 22:05 | 39.71045 | -73.89278 | 6289 ft | 297 kts | 228° |
| 2026-05-06 22:05 | 39.69596 | -73.91193 | 6064 ft | 298 kts | 228° |
| 2026-05-06 22:05 | 39.68141 | -73.93114 | 6044 ft | 298 kts | 227° |
| 2026-05-06 22:06 | 39.66689 | -73.95029 | 6038 ft | 297 kts | 228° |
| 2026-05-06 22:06 | 39.65238 | -73.96943 | 6044 ft | 297 kts | 228° |
| 2026-05-06 22:06 | 39.63786 | -73.98855 | 6042 ft | 298 kts | 228° |
| 2026-05-06 22:06 | 39.62333 | -74.00769 | 6055 ft | 298 kts | 228° |
| 2026-05-06 22:07 | 39.60877 | -74.02684 | 6048 ft | 299 kts | 228° |
| 2026-05-06 22:07 | 39.59415 | -74.04607 | 6045 ft | 300 kts | 228° |
| 2026-05-06 22:07 | 39.57951 | -74.06531 | 6048 ft | 300 kts | 228° |
| 2026-05-06 22:07 | 39.56487 | -74.08453 | 6042 ft | 300 kts | 228° |
| 2026-05-06 22:08 | 39.55021 | -74.10377 | 6051 ft | 300 kts | 228° |
| 2026-05-06 22:08 | 39.53614 | -74.12361 | 6048 ft | 298 kts | 235° |
| 2026-05-06 22:08 | 39.52662 | -74.14718 | 6045 ft | 295 kts | 253° |
| 2026-05-06 22:08 | 39.52395 | -74.17347 | 6053 ft | 296 kts | 267° |
| 2026-05-06 22:09 | 39.52418 | -74.20011 | 6048 ft | 296 kts | 270° |
| 2026-05-06 22:09 | 39.52487 | -74.22642 | 6045 ft | 296 kts | 270° |
| 2026-05-06 22:09 | 39.52556 | -74.25314 | 6044 ft | 296 kts | 270° |
| 2026-05-06 22:09 | 39.52618 | -74.27987 | 6046 ft | 296 kts | 270° |
| 2026-05-06 22:10 | 39.52675 | -74.30649 | 6045 ft | 296 kts | 270° |
| 2026-05-06 22:10 | 39.52728 | -74.33321 | 6046 ft | 296 kts | 270° |
| 2026-05-06 22:10 | 39.52779 | -74.35980 | 6053 ft | 296 kts | 270° |
| 2026-05-06 22:10 | 39.52829 | -74.38648 | 6048 ft | 297 kts | 270° |
| 2026-05-06 22:11 | 39.52877 | -74.41255 | 6038 ft | 279 kts | 270° |
| 2026-05-06 22:11 | 39.52922 | -74.43683 | 6039 ft | 264 kts | 270° |
| 2026-05-06 22:11 | 39.52964 | -74.46026 | 5704 ft | 258 kts | 270° |
| 2026-05-06 22:11 | 39.53004 | -74.48353 | 5149 ft | 259 kts | 269° |
| 2026-05-06 22:12 | 39.53043 | -74.50692 | 4616 ft | 259 kts | 269° |
| 2026-05-06 22:12 | 39.53083 | -74.53005 | 4258 ft | 252 kts | 268° |
| 2026-05-06 22:12 | 39.53122 | -74.55225 | 4051 ft | 240 kts | 268° |
| 2026-05-06 22:12 | 39.53158 | -74.57347 | 3794 ft | 232 kts | 268° |
| 2026-05-06 22:13 | 39.53192 | -74.59423 | 3467 ft | 229 kts | 268° |
| 2026-05-06 22:13 | 39.53225 | -74.61477 | 3144 ft | 227 kts | 268° |
| 2026-05-06 22:13 | 39.53256 | -74.63515 | 3052 ft | 227 kts | 268° |
| 2026-05-06 22:13 | 39.53288 | -74.65541 | 3047 ft | 228 kts | 268° |
| 2026-05-06 22:14 | 39.53319 | -74.67596 | 3049 ft | 228 kts | 268° |
| 2026-05-06 22:14 | 39.53351 | -74.69652 | 3048 ft | 228 kts | 268° |
| 2026-05-06 22:14 | 39.53383 | -74.71705 | 3044 ft | 228 kts | 268° |
| 2026-05-06 22:14 | 39.53414 | -74.73756 | 3042 ft | 227 kts | 268° |
| 2026-05-06 22:15 | 39.53446 | -74.75803 | 3041 ft | 227 kts | 268° |
| 2026-05-06 22:15 | 39.53479 | -74.77855 | 3044 ft | 227 kts | 268° |
| 2026-05-06 22:15 | 39.53511 | -74.79896 | 3040 ft | 225 kts | 268° |
| 2026-05-06 22:15 | 39.53543 | -74.81922 | 3040 ft | 225 kts | 268° |
| 2026-05-06 22:16 | 39.53575 | -74.83945 | 3042 ft | 225 kts | 268° |
| 2026-05-06 22:16 | 39.53605 | -74.85981 | 3041 ft | 227 kts | 268° |
| 2026-05-06 22:16 | 39.53636 | -74.88026 | 3033 ft | 227 kts | 268° |
| 2026-05-06 22:16 | 39.53666 | -74.90036 | 3031 ft | 226 kts | 268° |
| 2026-05-06 22:17 | 39.53697 | -74.92067 | 3032 ft | 225 kts | 267° |
| 2026-05-06 22:17 | 39.53799 | -74.94102 | 3029 ft | 228 kts | 274° |
| 2026-05-06 22:17 | 39.54253 | -74.96091 | 3030 ft | 234 kts | 289° |
| 2026-05-06 22:17 | 39.55173 | -74.97864 | 3030 ft | 242 kts | 307° |
| 2026-05-06 22:18 | 39.56466 | -74.99302 | 3026 ft | 247 kts | 316° |
| 2026-05-06 22:18 | 39.57869 | -75.00611 | 3026 ft | 249 kts | 317° |
| 2026-05-06 22:18 | 39.59284 | -75.01901 | 3026 ft | 248 kts | 317° |
| 2026-05-06 22:18 | 39.60693 | -75.03190 | 3029 ft | 247 kts | 317° |
| 2026-05-06 22:19 | 39.62071 | -75.04456 | 3018 ft | 236 kts | 318° |
| 2026-05-06 22:19 | 39.63368 | -75.05648 | 3021 ft | 220 kts | 317° |
| 2026-05-06 22:19 | 39.64575 | -75.06762 | 3021 ft | 207 kts | 317° |
| 2026-05-06 22:19 | 39.65759 | -75.07813 | 3027 ft | 207 kts | 322° |
| 2026-05-06 22:20 | 39.67069 | -75.08592 | 3027 ft | 214 kts | 335° |
| 2026-05-06 22:20 | 39.68581 | -75.08901 | 3025 ft | 221 kts | 354° |
| 2026-05-06 22:20 | 39.70109 | -75.08770 | 3030 ft | 224 kts | 0° |
| 2026-05-06 22:20 | 39.71655 | -75.08422 | 3028 ft | 228 kts | 10° |
| 2026-05-06 22:21 | 39.73144 | -75.07598 | 3021 ft | 233 kts | 28° |
| 2026-05-06 22:21 | 39.74388 | -75.06282 | 3031 ft | 235 kts | 42° |
| 2026-05-06 22:21 | 39.75515 | -75.04728 | 3020 ft | 237 kts | 46° |
| 2026-05-06 22:21 | 39.76628 | -75.03119 | 3030 ft | 240 kts | 45° |
| 2026-05-06 22:22 | 39.77743 | -75.01508 | 3025 ft | 240 kts | 46° |
| 2026-05-06 22:22 | 39.78867 | -74.99893 | 3025 ft | 242 kts | 45° |
| 2026-05-06 22:22 | 39.79997 | -74.98274 | 3031 ft | 241 kts | 46° |
| 2026-05-06 22:22 | 39.81126 | -74.96661 | 3026 ft | 240 kts | 45° |
| 2026-05-06 22:23 | 39.82252 | -74.95052 | 3028 ft | 241 kts | 46° |
| 2026-05-06 22:23 | 39.83260 | -74.93312 | 3029 ft | 241 kts | 59° |
| 2026-05-06 22:23 | 39.83913 | -74.91308 | 3032 ft | 241 kts | 73° |
| 2026-05-06 22:23 | 39.84375 | -74.89219 | 3027 ft | 240 kts | 76° |
| 2026-05-06 22:24 | 39.84801 | -74.87118 | 3028 ft | 240 kts | 77° |
| 2026-05-06 22:24 | 39.85227 | -74.85015 | 3035 ft | 241 kts | 77° |
| 2026-05-06 22:24 | 39.85866 | -74.83010 | 3029 ft | 241 kts | 55° |
| 2026-05-06 22:24 | 39.87050 | -74.81599 | 3010 ft | 222 kts | 19° |
| 2026-05-06 22:25 | 39.88459 | -74.81312 | 3016 ft | 196 kts | 340° |
| 2026-05-06 22:25 | 39.89617 | -74.82024 | 3035 ft | 178 kts | 307° |
| 2026-05-06 22:25 | 39.90294 | -74.83290 | 3034 ft | 167 kts | 285° |
| 2026-05-06 22:25 | 39.90600 | -74.84723 | 3037 ft | 163 kts | 273° |
| 2026-05-06 22:26 | 39.90725 | -74.86192 | 3029 ft | 163 kts | 270° |
| 2026-05-06 22:26 | 39.90817 | -74.87674 | 3030 ft | 164 kts | 269° |
| 2026-05-06 22:26 | 39.90910 | -74.89145 | 3033 ft | 166 kts | 270° |
| 2026-05-06 22:26 | 39.91009 | -74.90640 | 3035 ft | 165 kts | 270° |
| 2026-05-06 22:27 | 39.91110 | -74.92114 | 3051 ft | 163 kts | 270° |
| 2026-05-06 22:27 | 39.91213 | -74.93608 | 3038 ft | 164 kts | 270° |
| 2026-05-06 22:27 | 39.91317 | -74.95070 | 3038 ft | 165 kts | 270° |
| 2026-05-06 22:27 | 39.91423 | -74.96562 | 3034 ft | 166 kts | 270° |
| 2026-05-06 22:28 | 39.91528 | -74.98057 | 3032 ft | 166 kts | 270° |
| 2026-05-06 22:28 | 39.91534 | -74.99546 | 3028 ft | 164 kts | 260° |
| 2026-05-06 22:28 | 39.91334 | -75.00998 | 3019 ft | 162 kts | 254° |
| 2026-05-06 22:28 | 39.91062 | -75.02423 | 3022 ft | 162 kts | 253° |
| 2026-05-06 22:29 | 39.90776 | -75.03845 | 3025 ft | 161 kts | 253° |
| 2026-05-06 22:29 | 39.90513 | -75.05189 | 2920 ft | 147 kts | 254° |
| 2026-05-06 22:29 | 39.90269 | -75.06448 | 2756 ft | 141 kts | 253° |
| 2026-05-06 22:29 | 39.90023 | -75.07686 | 2546 ft | 142 kts | 253° |
| 2026-05-06 22:30 | 39.89777 | -75.08920 | 2376 ft | 141 kts | 253° |
| 2026-05-06 22:30 | 39.89536 | -75.10134 | 2164 ft | 135 kts | 253° |
| 2026-05-06 22:30 | 39.89303 | -75.11306 | 1989 ft | 133 kts | 253° |
| 2026-05-06 22:30 | 39.89075 | -75.12456 | 1824 ft | 133 kts | 253° |
| 2026-05-06 22:31 | 39.88842 | -75.13628 | 1645 ft | 133 kts | 253° |
| 2026-05-06 22:31 | 39.88610 | -75.14793 | 1459 ft | 132 kts | 253° |
| 2026-05-06 22:31 | 39.88378 | -75.15962 | 1285 ft | 134 kts | 252° |
| 2026-05-06 22:31 | 39.88144 | -75.17138 | 1104 ft | 134 kts | 253° |
| 2026-05-06 22:32 | 39.87908 | -75.18325 | 936 ft | 135 kts | 252° |
| 2026-05-06 22:32 | 39.87672 | -75.19513 | 755 ft | 136 kts | 251° |
| 2026-05-06 22:32 | 39.87429 | -75.20718 | 587 ft | 136 kts | 253° |
| 2026-05-06 22:32 | 39.87195 | -75.21854 | 389 ft | 125 kts | 252° |
| 2026-05-06 22:33 | 39.86992 | -75.22918 | 233 ft | 121 kts | 254° |
| 2026-05-06 22:33 | 39.86788 | -75.23990 | 49 ft | 119 kts | 250° |
| 2026-05-06 22:33 | 39.86590 | -75.24951 | 26 ft | 96 kts | 256° |
| 2026-05-06 22:33 | 39.86452 | -75.25661 | 19 ft | 68 kts | 255° |
| 2026-05-06 22:34 | 39.86396 | -75.26027 | 18 ft | 15 kts | 289° |
| 2026-05-06 22:34 | 39.86452 | -75.26079 | 18 ft | 3 kts | 11° |
| 2026-05-06 22:34 | 39.86494 | -75.26010 | 18 ft | 18 kts | 65° |
| 2026-05-06 22:34 | 39.86532 | -75.25849 | 17 ft | 19 kts | 72° |
| 2026-05-06 22:35 | 39.86543 | -75.25796 | 18 ft | 0 kts | 76° |
| 2026-05-06 22:35 | 39.86558 | -75.25725 | 20 ft | 12 kts | 73° |
| 2026-05-06 22:35 | 39.86572 | -75.25682 | 21 ft | 8 kts | 48° |
| 2026-05-06 22:36 | 39.86621 | -75.25675 | 20 ft | 8 kts | 355° |
| 2026-05-06 22:36 | 39.86680 | -75.25691 | 21 ft | 9 kts | 342° |
| 2026-05-06 22:36 | 39.86745 | -75.25715 | 23 ft | 10 kts | 346° |
| 2026-05-06 22:36 | 39.86793 | -75.25728 | 24 ft | 11 kts | 348° |
| 2026-05-06 22:37 | 39.86880 | -75.25756 | 25 ft | 14 kts | 344° |
| 2026-05-06 22:37 | 39.86982 | -75.25790 | 25 ft | 15 kts | 359° |
| 2026-05-06 22:37 | 39.87043 | -75.25694 | 28 ft | 16 kts | 72° |
| 2026-05-06 22:37 | 39.87074 | -75.25529 | 25 ft | 21 kts | 77° |
| 2026-05-06 22:38 | 39.87106 | -75.25327 | 21 ft | 24 kts | 80° |
| 2026-05-06 22:38 | 39.87149 | -75.25101 | 17 ft | 24 kts | 73° |
| 2026-05-06 22:38 | 39.87177 | -75.25000 | 19 ft | 10 kts | 68° |
| 2026-05-06 22:38 | 39.87202 | -75.24904 | 20 ft | 12 kts | 76° |
| 2026-05-06 22:39 | 39.87212 | -75.24843 | 19 ft | 3 kts | 80° |
| 2026-05-06 22:39 | 39.87217 | -75.24806 | 22 ft | 5 kts | 80° |
| 2026-05-06 22:39 | 39.87243 | -75.24647 | 22 ft | 33 kts | 77° |
| 2026-05-06 22:39 | 39.87297 | -75.24363 | 24 ft | 34 kts | 75° |
| 2026-05-06 22:40 | 39.87357 | -75.24065 | 28 ft | 32 kts | 77° |
| 2026-05-06 22:40 | 39.87383 | -75.23944 | 24 ft | 0 kts | 72° |
| 2026-05-06 22:40 | 39.87386 | -75.23934 | 23 ft | 1 kts | 64° |
| 2026-05-06 22:41 | 39.87402 | -75.23952 | 25 ft | 2 kts | 257° |
| 2026-05-06 22:41 | 39.87388 | -75.24011 | 26 ft | 9 kts | 253° |
| 2026-05-06 22:41 | 39.87365 | -75.24089 | 28 ft | 10 kts | 249° |
| 2026-05-06 22:42 | 39.87369 | -75.24182 | 24 ft | 12 kts | 298° |
| 2026-05-06 22:42 | 39.87441 | -75.24247 | 24 ft | 13 kts | 313° |
| 2026-05-06 22:42 | 39.87452 | -75.24323 | 25 ft | 0 kts | 259° |